Terminal Aerodrome Forecast
Issued by NWS Charleston, WV

Current Version | Previous Version | Text Only | Print | Product List | Glossary Off
Versions: 1 2 3 4 5 6 7 8 9 10 11 12 13 14 15 16 17 18 19 20 21 22 23

000
FTUS41 KRLX 240900 AAA
TAFHTS
TAF AMD
KHTS 240911Z 2409/2506 VRB03KT 1 1/2SM -SN BR OVC004
      TEMPO 2409/2411 1/2SM SN OVC002
     FM241100 VRB03KT 3SM -SN OVC004
     FM241400 29007KT 6SM BR BKN008
     FM241700 27009KT P6SM BKN015
     FM242100 24009G17KT P6SM BKN030=

USA.gov is the U.S. government's official web portal to all federal, state and local government web resources and services.